createdAt,value
2017-06-29T00:02:05.701Z,70.00
2017-06-29T00:04:32.263Z,70.40
2017-06-29T00:06:58.696Z,70.40
2017-06-29T00:09:25.233Z,70.20
2017-06-29T00:11:52.382Z,69.60
2017-06-29T00:14:18.869Z,69.50
2017-06-29T00:16:45.310Z,69.40
2017-06-29T00:19:11.741Z,69.00
2017-06-29T00:21:38.175Z,69.30
2017-06-29T00:24:04.671Z,68.90
2017-06-29T00:26:32.283Z,69.20
2017-06-29T00:28:58.736Z,69.20
2017-06-29T00:31:25.190Z,69.00
2017-06-29T00:33:51.632Z,69.70
2017-06-29T00:36:18.844Z,68.80
2017-06-29T00:38:45.783Z,68.70
2017-06-29T00:41:12.221Z,68.20
2017-06-29T00:43:38.660Z,68.70
2017-06-29T00:46:05.282Z,68.30
2017-06-29T00:48:31.715Z,67.90
2017-06-29T00:50:58.195Z,68.30
2017-06-29T00:53:24.668Z,68.70
2017-06-29T00:55:51.135Z,67.80
2017-06-29T00:58:17.604Z,68.10
2017-06-29T01:00:44.048Z,68.20
2017-06-29T01:03:10.505Z,68.40
2017-06-29T01:05:37.700Z,67.90
2017-06-29T01:08:04.133Z,67.90
2017-06-29T01:10:30.596Z,67.10
2017-06-29T01:12:57.093Z,67.50
2017-06-29T01:15:23.562Z,67.60
2017-06-29T01:17:49.989Z,67.60
2017-06-29T01:20:16.467Z,67.50
2017-06-29T01:22:42.886Z,67.40
2017-06-29T01:25:09.336Z,67.70
2017-06-29T01:27:35.768Z,67.20
2017-06-29T01:30:02.342Z,66.60
2017-06-29T01:32:28.793Z,67.00
2017-06-29T01:34:55.280Z,66.70
2017-06-29T01:37:21.737Z,67.30
2017-06-29T01:39:48.953Z,67.40
2017-06-29T01:42:15.363Z,67.40
2017-06-29T01:44:41.902Z,66.70
2017-06-29T01:47:08.345Z,67.80
2017-06-29T01:49:34.802Z,68.40
2017-06-29T01:52:01.270Z,68.30
2017-06-29T01:54:27.822Z,67.90
2017-06-29T01:56:58.932Z,67.80
2017-06-29T01:59:26.216Z,68.10
2017-06-29T02:01:52.670Z,67.70
2017-06-29T02:04:19.151Z,68.20
2017-06-29T02:06:45.653Z,68.20
2017-06-29T02:09:12.873Z,66.90
2017-06-29T02:11:39.351Z,66.90
2017-06-29T02:14:05.863Z,67.30
2017-06-29T02:16:32.325Z,67.50
2017-06-29T02:18:58.743Z,68.00
2017-06-29T02:21:25.151Z,68.00
2017-06-29T02:23:51.661Z,67.50
2017-06-29T02:26:18.135Z,68.10
2017-06-29T02:28:44.567Z,68.00
2017-06-29T02:31:10.997Z,67.70
2017-06-29T02:33:37.404Z,67.20
2017-06-29T02:36:03.859Z,67.80
2017-06-29T02:38:30.308Z,67.30
2017-06-29T02:40:56.765Z,67.60
2017-06-29T02:43:23.476Z,68.40
2017-06-29T02:45:49.932Z,67.40
2017-06-29T02:48:16.348Z,67.90
2017-06-29T02:50:42.923Z,67.70
2017-06-29T02:53:09.389Z,68.00
2017-06-29T02:55:35.882Z,68.30
2017-06-29T02:58:02.317Z,67.80
2017-06-29T03:00:29.537Z,69.50
2017-06-29T03:02:55.984Z,69.30
2017-06-29T03:05:22.511Z,70.50
2017-06-29T03:07:48.956Z,69.50
2017-06-29T03:10:15.440Z,69.30
2017-06-29T03:12:41.870Z,69.40
2017-06-29T03:15:08.321Z,69.80
2017-06-29T03:17:34.726Z,70.00
2017-06-29T03:20:01.183Z,70.70
2017-06-29T03:22:28.344Z,71.00
2017-06-29T03:24:54.768Z,70.70
2017-06-29T03:27:21.944Z,70.70
2017-06-29T03:29:48.457Z,70.60
2017-06-29T03:32:14.876Z,70.00
2017-06-29T03:34:41.322Z,70.20
2017-06-29T03:37:07.756Z,70.70
2017-06-29T03:39:34.262Z,70.70
2017-06-29T03:42:00.710Z,70.20
2017-06-29T03:44:27.179Z,70.70
2017-06-29T03:46:53.611Z,70.70
2017-06-29T03:49:20.115Z,70.80
2017-06-29T03:51:46.568Z,70.10
2017-06-29T03:54:13.044Z,69.80
2017-06-29T03:56:39.465Z,70.00
2017-06-29T03:59:05.969Z,69.90
2017-06-29T04:01:32.406Z,69.70
2017-06-29T04:03:58.874Z,69.40
2017-06-29T04:06:25.328Z,69.70
2017-06-29T04:08:51.825Z,68.80
2017-06-29T04:11:18.325Z,69.50
2017-06-29T04:13:45.505Z,68.30
2017-06-29T04:16:12.037Z,68.30
2017-06-29T04:18:38.473Z,68.20
2017-06-29T04:21:05.674Z,68.20
2017-06-29T04:23:32.139Z,67.50
2017-06-29T04:25:58.611Z,67.20
2017-06-29T04:28:25.043Z,67.40
2017-06-29T04:30:51.511Z,66.60
2017-06-29T04:33:17.996Z,65.70
2017-06-29T04:35:44.444Z,64.80
2017-06-29T04:38:11.244Z,64.20
2017-06-29T04:40:37.701Z,63.70
2017-06-29T04:43:04.521Z,64.20
2017-06-29T04:45:31.364Z,63.50
2017-06-29T04:47:57.933Z,63.20
2017-06-29T04:50:32.080Z,63.00
2017-06-29T04:52:58.589Z,62.80
2017-06-29T04:55:25.097Z,63.20
2017-06-29T04:57:51.635Z,62.20
2017-06-29T05:00:18.892Z,62.20
2017-06-29T05:02:45.430Z,62.20
2017-06-29T05:05:11.895Z,62.20
2017-06-29T05:07:38.316Z,62.50
2017-06-29T05:10:04.748Z,62.20
2017-06-29T05:12:31.315Z,62.30
2017-06-29T05:14:58.505Z,63.00
2017-06-29T05:17:25.112Z,62.40
2017-06-29T05:19:52.451Z,62.00
2017-06-29T05:22:18.940Z,61.90
2017-06-29T05:24:45.525Z,62.30
2017-06-29T05:27:11.991Z,62.30
2017-06-29T05:29:38.506Z,62.60
2017-06-29T05:32:04.962Z,62.20
2017-06-29T05:34:31.452Z,62.20
2017-06-29T05:36:58.706Z,62.40
2017-06-29T05:39:25.201Z,61.70
2017-06-29T05:41:52.096Z,62.00
2017-06-29T05:44:18.616Z,61.90
2017-06-29T05:46:45.119Z,62.20
2017-06-29T05:49:12.774Z,62.20
2017-06-29T05:51:39.231Z,62.20
2017-06-29T05:54:06.677Z,62.20
2017-06-29T05:56:33.398Z,63.30
2017-06-29T05:58:59.863Z,63.30
2017-06-29T06:01:26.334Z,62.40
2017-06-29T06:03:54.341Z,62.40
2017-06-29T06:06:20.876Z,62.40
2017-06-29T06:08:47.356Z,61.80
2017-06-29T06:11:14.598Z,61.90
2017-06-29T06:13:41.031Z,62.00
2017-06-29T06:16:07.461Z,62.30
2017-06-29T06:18:34.616Z,62.50
2017-06-29T06:21:01.956Z,62.90
2017-06-29T06:23:28.374Z,62.90
2017-06-29T06:25:54.813Z,63.10
2017-06-29T06:28:21.568Z,62.60
2017-06-29T06:30:48.000Z,62.60
2017-06-29T06:33:14.439Z,62.60
2017-06-29T06:35:42.344Z,62.50
2017-06-29T06:38:09.681Z,62.10
2017-06-29T06:40:36.136Z,61.00
2017-06-29T06:43:02.630Z,62.50
2017-06-29T06:45:29.072Z,61.50
2017-06-29T06:47:55.522Z,60.80
2017-06-29T06:50:21.945Z,61.20
2017-06-29T06:52:48.468Z,61.60
2017-06-29T06:55:15.698Z,63.00
2017-06-29T06:57:42.151Z,63.00
2017-06-29T07:00:08.599Z,62.20
2017-06-29T07:02:35.030Z,62.90
2017-06-29T07:05:01.524Z,62.40
2017-06-29T07:07:28.401Z,62.30
2017-06-29T07:10:12.237Z,62.40
2017-06-29T07:12:38.720Z,62.80
2017-06-29T07:15:05.179Z,63.30
2017-06-29T07:17:38.509Z,62.70
2017-06-29T07:20:04.962Z,63.00
2017-06-29T07:22:31.436Z,62.90
2017-06-29T07:24:57.880Z,63.30
2017-06-29T07:27:24.332Z,62.50
2017-06-29T07:29:50.773Z,62.90
2017-06-29T07:32:17.247Z,63.10
2017-06-29T07:34:46.500Z,63.40
2017-06-29T07:37:13.699Z,62.30
2017-06-29T07:39:40.137Z,62.40
2017-06-29T07:42:06.568Z,62.20
2017-06-29T07:44:33.010Z,61.60
2017-06-29T07:46:59.465Z,61.50
2017-06-29T07:49:26.039Z,62.30
2017-06-29T07:51:52.541Z,62.50
2017-06-29T07:54:19.807Z,62.30
2017-06-29T07:56:46.983Z,61.20
2017-06-29T07:59:13.398Z,61.20
2017-06-29T08:01:39.871Z,61.30
2017-06-29T08:04:06.307Z,60.50
2017-06-29T08:06:32.855Z,60.20
2017-06-29T08:08:59.521Z,61.10
2017-06-29T08:11:26.672Z,60.70
2017-06-29T08:13:53.136Z,61.30
2017-06-29T08:16:19.574Z,58.80
2017-06-29T08:18:46.003Z,59.70
2017-06-29T08:21:13.438Z,58.30
2017-06-29T08:23:41.552Z,58.80
2017-06-29T08:26:09.000Z,57.70
2017-06-29T08:28:36.491Z,57.70
2017-06-29T08:31:02.995Z,57.60
2017-06-29T08:33:29.543Z,56.00
2017-06-29T08:35:55.973Z,55.90
2017-06-29T08:38:22.459Z,56.40
2017-06-29T08:40:48.903Z,56.50
2017-06-29T08:43:15.343Z,55.70
2017-06-29T08:48:15.021Z,55.20
2017-06-29T08:50:41.431Z,55.30
2017-06-29T08:53:07.928Z,55.40
2017-06-29T08:55:34.451Z,56.40
2017-06-29T08:58:00.893Z,55.10
2017-06-29T09:00:27.343Z,55.60
2017-06-29T09:02:53.803Z,55.80
2017-06-29T09:05:20.241Z,55.20
2017-06-29T09:07:46.631Z,55.50
2017-06-29T09:10:13.112Z,53.60
2017-06-29T09:12:39.515Z,55.10
2017-06-29T09:15:06.045Z,54.50
2017-06-29T09:17:33.197Z,54.60
2017-06-29T09:19:59.593Z,53.80
2017-06-29T09:22:26.220Z,53.90
2017-06-29T09:24:52.798Z,54.40
2017-06-29T09:27:23.208Z,55.30
2017-06-29T09:29:49.646Z,55.60
2017-06-29T09:32:16.090Z,56.00
2017-06-29T09:34:42.514Z,54.30
2017-06-29T09:37:08.928Z,54.40
2017-06-29T09:39:35.321Z,53.90
2017-06-29T09:42:01.741Z,54.80
2017-06-29T09:44:28.971Z,52.90
2017-06-29T09:46:55.393Z,52.90
2017-06-29T09:49:21.791Z,52.30
2017-06-29T09:51:48.273Z,52.40
2017-06-29T09:54:14.724Z,52.70
2017-06-29T09:56:41.120Z,52.90
2017-06-29T09:59:07.611Z,51.10
2017-06-29T10:01:34.097Z,51.80
2017-06-29T10:04:00.582Z,51.50
2017-06-29T10:06:26.999Z,51.50
2017-06-29T10:08:53.412Z,50.90
2017-06-29T10:11:20.592Z,50.10
2017-06-29T10:13:47.540Z,50.00
2017-06-29T10:16:13.988Z,50.80
2017-06-29T10:18:40.432Z,51.00
2017-06-29T10:21:06.851Z,49.50
2017-06-29T10:23:33.273Z,48.90
2017-06-29T10:25:59.681Z,48.60
2017-06-29T10:28:26.108Z,46.80
2017-06-29T10:30:52.574Z,47.70
2017-06-29T10:33:18.976Z,48.40
2017-06-29T10:35:45.412Z,48.00
2017-06-29T10:38:11.887Z,48.20
2017-06-29T10:40:38.324Z,49.10
2017-06-29T10:43:05.535Z,48.40
2017-06-29T10:45:31.992Z,48.40
2017-06-29T10:47:58.483Z,48.50
2017-06-29T10:50:24.926Z,48.20
2017-06-29T10:52:51.377Z,48.40
2017-06-29T10:55:17.823Z,49.20
2017-06-29T10:57:44.236Z,49.80
2017-06-29T11:00:10.667Z,50.30
2017-06-29T11:02:37.080Z,49.90
2017-06-29T11:05:03.492Z,49.70
2017-06-29T11:07:29.919Z,49.50
2017-06-29T11:09:56.561Z,50.20
2017-06-29T11:12:22.995Z,50.50
2017-06-29T11:14:49.404Z,50.10
2017-06-29T11:17:15.850Z,51.20
2017-06-29T11:19:42.271Z,49.70
2017-06-29T11:22:08.785Z,48.80
2017-06-29T11:24:35.215Z,49.40
2017-06-29T11:27:01.657Z,48.30
2017-06-29T11:29:28.056Z,49.80
2017-06-29T11:31:54.928Z,50.10
2017-06-29T11:34:21.387Z,49.60
2017-06-29T11:36:47.773Z,50.30
2017-06-29T11:39:14.224Z,48.20
2017-06-29T11:41:40.652Z,48.10
2017-06-29T11:44:07.096Z,47.00
2017-06-29T11:46:33.501Z,47.80
2017-06-29T11:48:59.930Z,47.60
2017-06-29T11:51:26.336Z,47.10
2017-06-29T11:53:52.756Z,45.70
2017-06-29T11:56:19.184Z,47.10
2017-06-29T11:58:45.622Z,46.80
2017-06-29T12:01:12.054Z,47.10
2017-06-29T12:03:39.272Z,45.40
2017-06-29T12:06:05.704Z,45.40
2017-06-29T12:08:32.116Z,46.40
2017-06-29T12:10:58.540Z,45.80
2017-06-29T12:13:24.939Z,47.40
2017-06-29T12:15:51.375Z,45.70
2017-06-29T12:18:17.821Z,45.50
2017-06-29T12:20:44.250Z,45.40
2017-06-29T12:23:10.756Z,46.50
2017-06-29T12:25:37.157Z,46.50
2017-06-29T12:28:03.624Z,44.40
2017-06-29T12:30:30.116Z,44.80
2017-06-29T12:32:56.529Z,45.30
2017-06-29T12:35:22.977Z,45.20
2017-06-29T12:37:49.457Z,46.70
2017-06-29T12:40:15.888Z,46.40
2017-06-29T12:42:42.325Z,45.10
2017-06-29T12:45:08.757Z,45.30
2017-06-29T12:47:35.172Z,45.30
2017-06-29T12:50:01.565Z,45.90
2017-06-29T12:52:27.988Z,45.00
2017-06-29T12:54:54.468Z,45.10
2017-06-29T12:57:20.879Z,44.40
2017-06-29T12:59:47.353Z,44.20
2017-06-29T13:02:17.518Z,42.00
2017-06-29T13:04:43.976Z,42.80
2017-06-29T13:07:15.892Z,45.00
2017-06-29T13:09:43.722Z,44.80
2017-06-29T13:12:10.952Z,45.10
2017-06-29T13:14:44.084Z,45.00
2017-06-29T13:17:10.503Z,43.90
2017-06-29T13:19:43.333Z,43.10
2017-06-29T13:22:11.123Z,44.10
2017-06-29T13:24:37.535Z,44.30
2017-06-29T13:27:03.924Z,43.20
2017-06-29T13:29:31.599Z,45.50
2017-06-29T13:31:58.228Z,45.20
2017-06-29T13:34:29.682Z,43.80
2017-06-29T13:36:56.334Z,43.10
2017-06-29T13:39:22.867Z,44.00
2017-06-29T13:41:49.419Z,42.60
2017-06-29T13:44:15.884Z,43.80
2017-06-29T13:46:43.115Z,43.70
2017-06-29T13:49:12.660Z,43.70
2017-06-29T13:51:39.043Z,44.00
2017-06-29T13:54:05.915Z,44.20
2017-06-29T13:56:32.332Z,43.60
2017-06-29T13:58:58.752Z,43.40
2017-06-29T14:01:25.221Z,44.20
2017-06-29T14:03:51.756Z,44.30
2017-06-29T14:06:22.116Z,44.60
2017-06-29T14:08:48.540Z,44.40
2017-06-29T14:11:15.722Z,43.30
2017-06-29T14:13:43.005Z,42.70
2017-06-29T14:16:09.498Z,43.30
2017-06-29T14:18:35.912Z,42.60
2017-06-29T14:21:02.410Z,42.20
2017-06-29T14:23:29.456Z,42.10
2017-06-29T14:25:55.932Z,43.30
2017-06-29T14:28:22.329Z,43.30
2017-06-29T14:30:49.829Z,43.40
2017-06-29T14:33:17.273Z,43.40
2017-06-29T14:35:43.675Z,42.20
2017-06-29T14:38:11.212Z,43.10
2017-06-29T14:40:37.675Z,43.10
2017-06-29T14:43:04.277Z,42.80
2017-06-29T14:45:30.893Z,42.30
2017-06-29T14:47:57.407Z,42.50
2017-06-29T14:50:23.839Z,42.30
2017-06-29T14:52:52.700Z,42.30
2017-06-29T14:55:19.429Z,42.30
2017-06-29T14:57:45.891Z,43.40
2017-06-29T15:00:16.493Z,42.50
2017-06-29T15:02:43.609Z,42.60
2017-06-29T15:05:10.116Z,42.80
2017-06-29T15:07:36.785Z,41.60
2017-06-29T15:10:03.178Z,40.80
2017-06-29T15:12:29.606Z,41.50
2017-06-29T15:14:56.033Z,44.20
2017-06-29T15:17:22.720Z,43.70
2017-06-29T15:19:52.581Z,43.00
2017-06-29T15:22:19.013Z,42.10
2017-06-29T15:24:45.430Z,41.70
2017-06-29T15:27:12.939Z,42.40
2017-06-29T15:29:39.392Z,42.00
2017-06-29T15:32:05.816Z,41.30
2017-06-29T15:34:32.332Z,41.60
2017-06-29T15:37:04.796Z,42.60
2017-06-29T15:39:31.492Z,42.60
2017-06-29T15:41:58.446Z,44.30
2017-06-29T15:44:24.892Z,42.70
2017-06-29T15:46:51.284Z,42.10
2017-06-29T15:49:17.693Z,41.70
2017-06-29T15:51:44.849Z,42.70
2017-06-29T15:54:11.996Z,41.80
2017-06-29T15:56:39.144Z,41.50
2017-06-29T15:59:05.543Z,41.40
2017-06-29T16:01:31.952Z,41.90
2017-06-29T16:03:59.273Z,42.90
2017-06-29T16:06:25.659Z,42.40
2017-06-29T16:08:52.812Z,42.40
2017-06-29T16:11:19.229Z,42.40
2017-06-29T16:13:45.707Z,42.50
2017-06-29T16:16:12.109Z,42.40
2017-06-29T16:18:38.533Z,42.50
2017-06-29T16:21:04.946Z,41.70
2017-06-29T16:23:31.360Z,42.80
2017-06-29T16:25:57.765Z,42.40
2017-06-29T16:28:29.766Z,43.20
2017-06-29T16:30:56.216Z,42.40
2017-06-29T16:33:22.619Z,43.60
2017-06-29T16:35:49.291Z,42.00
2017-06-29T16:38:15.969Z,42.10
2017-06-29T16:40:42.363Z,42.20
2017-06-29T16:43:08.782Z,43.00
2017-06-29T16:45:35.965Z,42.30
2017-06-29T16:48:02.576Z,42.30
2017-06-29T16:50:29.023Z,43.60
2017-06-29T16:52:56.183Z,44.20
2017-06-29T16:55:23.225Z,44.10
2017-06-29T16:57:49.968Z,42.40
2017-06-29T17:00:19.057Z,43.20
2017-06-29T17:02:46.391Z,42.40
2017-06-29T17:05:12.828Z,42.40
2017-06-29T17:07:41.579Z,42.40
2017-06-29T17:10:09.698Z,42.50
2017-06-29T17:12:37.115Z,43.90
2017-06-29T17:15:03.569Z,43.70
2017-06-29T17:17:32.188Z,42.20
2017-06-29T17:19:58.883Z,42.00
2017-06-29T17:22:25.519Z,42.20
2017-06-29T17:24:51.925Z,41.90
2017-06-29T17:27:18.494Z,42.40
2017-06-29T17:29:45.094Z,41.40
2017-06-29T17:32:11.574Z,43.00
2017-06-29T17:34:38.272Z,42.00
2017-06-29T17:37:04.705Z,42.40
2017-06-29T17:39:31.105Z,43.10
2017-06-29T17:41:57.567Z,42.00
2017-06-29T17:44:24.252Z,42.00
2017-06-29T17:46:50.817Z,44.30
2017-06-29T17:49:17.289Z,44.00
2017-06-29T17:51:43.775Z,42.10
2017-06-29T17:54:11.026Z,43.80
2017-06-29T17:56:37.718Z,42.00
2017-06-29T17:59:04.155Z,45.40
2017-06-29T18:01:30.954Z,44.00
2017-06-29T18:03:58.255Z,43.70
2017-06-29T18:06:24.675Z,43.70
2017-06-29T18:08:51.111Z,43.20
2017-06-29T18:11:17.516Z,43.10
2017-06-29T18:13:43.943Z,43.30
2017-06-29T18:16:10.372Z,43.90
2017-06-29T18:18:44.526Z,43.50
2017-06-29T18:21:10.995Z,43.30
2017-06-29T18:23:37.565Z,43.30
2017-06-29T18:26:04.180Z,44.80
2017-06-29T18:28:31.067Z,44.00
2017-06-29T18:30:57.484Z,45.40
2017-06-29T18:33:25.780Z,47.00
2017-06-29T18:35:54.104Z,44.20
2017-06-29T18:38:20.548Z,43.80
2017-06-29T18:40:47.101Z,45.00
2017-06-29T18:43:13.860Z,45.40
2017-06-29T18:45:40.442Z,45.00
2017-06-29T18:48:07.025Z,43.80
2017-06-29T18:50:33.426Z,44.60
2017-06-29T18:52:59.898Z,44.90
2017-06-29T18:55:27.391Z,46.50
2017-06-29T18:57:53.828Z,47.60
2017-06-29T19:00:20.310Z,47.30
2017-06-29T19:02:46.749Z,49.00
2017-06-29T19:05:13.168Z,49.90
2017-06-29T19:07:39.701Z,48.60
2017-06-29T19:10:10.815Z,48.90
2017-06-29T19:12:37.298Z,48.30
2017-06-29T19:15:03.690Z,47.90
2017-06-29T19:17:30.871Z,49.30
2017-06-29T19:19:58.221Z,51.50
2017-06-29T19:22:25.545Z,50.80
2017-06-29T19:24:52.051Z,50.80
2017-06-29T19:27:18.507Z,50.40
2017-06-29T19:29:46.142Z,51.40
2017-06-29T19:32:12.619Z,51.20
2017-06-29T19:34:40.139Z,51.00
2017-06-29T19:37:06.729Z,51.30
2017-06-29T19:39:33.132Z,52.30
2017-06-29T19:41:59.562Z,52.20
2017-06-29T19:44:26.192Z,52.00
2017-06-29T19:46:52.682Z,51.90
2017-06-29T19:49:19.143Z,51.70
2017-06-29T19:51:45.560Z,52.20
2017-06-29T19:54:12.048Z,51.60
2017-06-29T19:56:38.504Z,52.90
2017-06-29T19:59:05.001Z,51.60
2017-06-29T20:01:32.015Z,53.30
2017-06-29T20:03:58.752Z,52.80
2017-06-29T20:06:25.224Z,52.40
2017-06-29T20:08:54.181Z,53.60
2017-06-29T20:11:21.402Z,52.00
2017-06-29T20:14:02.704Z,53.90
2017-06-29T20:16:29.129Z,53.90
2017-06-29T20:18:55.539Z,52.80
2017-06-29T20:21:22.106Z,53.90
2017-06-29T20:23:48.623Z,54.50
2017-06-29T20:26:15.165Z,53.70
2017-06-29T20:28:44.753Z,54.70
2017-06-29T20:31:11.267Z,53.30
2017-06-29T20:33:43.372Z,54.20
2017-06-29T20:36:10.094Z,53.00
2017-06-29T20:38:36.539Z,52.90
2017-06-29T20:41:03.156Z,54.80
2017-06-29T20:43:29.908Z,54.00
2017-06-29T20:45:56.462Z,54.10
2017-06-29T20:48:23.478Z,54.30
2017-06-29T20:50:50.531Z,55.20
2017-06-29T20:53:18.012Z,54.70
2017-06-29T20:55:44.769Z,54.80
2017-06-29T20:58:11.960Z,55.10
2017-06-29T21:00:38.354Z,55.30
2017-06-29T21:03:04.763Z,55.80
2017-06-29T21:05:31.139Z,55.30
2017-06-29T21:07:57.651Z,54.50
2017-06-29T21:10:24.137Z,56.00
2017-06-29T21:12:50.754Z,56.00
2017-06-29T21:15:17.203Z,56.00
2017-06-29T21:17:43.587Z,56.40
2017-06-29T21:20:10.036Z,56.40
2017-06-29T21:22:36.473Z,56.40
2017-06-29T21:25:02.978Z,56.60
2017-06-29T21:27:29.410Z,55.50
2017-06-29T21:29:55.801Z,55.90
2017-06-29T21:32:22.224Z,55.60
2017-06-29T21:34:48.658Z,55.50
2017-06-29T21:37:15.111Z,55.30
2017-06-29T21:39:41.549Z,55.40
2017-06-29T21:42:08.731Z,55.30
2017-06-29T21:44:35.260Z,55.00
2017-06-29T21:47:09.897Z,55.70
2017-06-29T21:49:36.322Z,55.20
2017-06-29T21:52:02.745Z,54.60
2017-06-29T21:54:29.156Z,54.40
2017-06-29T21:56:55.556Z,54.50
2017-06-29T21:59:22.044Z,54.30
2017-06-29T22:01:48.459Z,53.90
2017-06-29T22:04:15.644Z,54.50
2017-06-29T22:06:42.044Z,54.40
2017-06-29T22:09:09.202Z,53.80
2017-06-29T22:11:35.616Z,53.80
2017-06-29T22:14:02.222Z,52.90
2017-06-29T22:16:28.705Z,53.10
2017-06-29T22:18:55.237Z,53.40
2017-06-29T22:21:22.449Z,53.50
2017-06-29T22:26:21.160Z,53.30
2017-06-29T22:28:47.563Z,53.90
2017-06-29T22:31:13.968Z,53.80
2017-06-29T22:33:40.359Z,54.70
2017-06-29T22:36:07.005Z,54.40
2017-06-29T22:38:33.417Z,53.80
2017-06-29T22:41:03.823Z,53.70
2017-06-29T22:43:30.236Z,53.90
2017-06-29T22:45:56.671Z,53.70
2017-06-29T22:48:23.291Z,54.60
2017-06-29T22:50:49.726Z,54.20
2017-06-29T22:53:16.124Z,54.30
2017-06-29T22:55:43.280Z,54.70
2017-06-29T22:58:09.775Z,54.60
2017-06-29T23:00:36.281Z,54.50
2017-06-29T23:03:02.772Z,55.10
2017-06-29T23:05:29.384Z,54.20
2017-06-29T23:07:55.829Z,54.40
2017-06-29T23:10:22.248Z,54.80
2017-06-29T23:12:48.698Z,55.60
2017-06-29T23:15:15.109Z,54.60
2017-06-29T23:17:41.557Z,54.40
2017-06-29T23:20:08.197Z,55.10
2017-06-29T23:22:34.649Z,55.50
2017-06-29T23:25:01.075Z,54.90
2017-06-29T23:27:27.491Z,54.00
2017-06-29T23:29:53.899Z,54.20
2017-06-29T23:32:20.368Z,54.30
2017-06-29T23:34:46.806Z,54.00
2017-06-29T23:37:13.243Z,54.10
2017-06-29T23:39:39.696Z,53.40
2017-06-29T23:42:06.119Z,54.00
2017-06-29T23:44:32.541Z,53.90
2017-06-29T23:46:58.970Z,54.40
2017-06-29T23:49:26.174Z,54.80
2017-06-29T23:51:52.958Z,54.90
2017-06-29T23:54:19.384Z,54.50
2017-06-29T23:56:45.813Z,54.50
2017-06-29T23:59:13.130Z,54.80
